sensor_id;sensor_type;location;lat;lon;timestamp;temperature;humidity
29917;DHT22;16786;49.466;11.068;2023-10-19T00:00:48;9.60;99.90
29917;DHT22;16786;49.466;11.068;2023-10-19T00:03:17;9.50;99.90
29917;DHT22;16786;49.466;11.068;2023-10-19T00:05:46;9.50;99.90
29917;DHT22;16786;49.466;11.068;2023-10-19T00:08:16;9.60;99.90
29917;DHT22;16786;49.466;11.068;2023-10-19T00:10:49;9.50;99.90
29917;DHT22;16786;49.466;11.068;2023-10-19T00:13:30;9.50;99.90
29917;DHT22;16786;49.466;11.068;2023-10-19T00:15:58;9.50;99.90
29917;DHT22;16786;49.466;11.068;2023-10-19T00:18:25;9.50;99.90
29917;DHT22;16786;49.466;11.068;2023-10-19T00:20:55;9.50;99.90
29917;DHT22;16786;49.466;11.068;2023-10-19T00:23:40;9.50;99.90
29917;DHT22;16786;49.466;11.068;2023-10-19T00:26:08;9.50;99.90
29917;DHT22;16786;49.466;11.068;2023-10-19T00:28:39;9.50;99.90
29917;DHT22;16786;49.466;11.068;2023-10-19T00:31:06;9.50;99.90
29917;DHT22;16786;49.466;11.068;2023-10-19T00:33:38;9.50;99.90
29917;DHT22;16786;49.466;11.068;2023-10-19T00:36:08;9.50;99.90
29917;DHT22;16786;49.466;11.068;2023-10-19T00:38:39;9.50;99.90
29917;DHT22;16786;49.466;11.068;2023-10-19T00:41:20;9.50;99.90
29917;DHT22;16786;49.466;11.068;2023-10-19T00:43:49;9.50;99.90
29917;DHT22;16786;49.466;11.068;2023-10-19T00:46:18;9.40;99.90
29917;DHT22;16786;49.466;11.068;2023-10-19T00:51:21;9.40;99.90
29917;DHT22;16786;49.466;11.068;2023-10-19T00:54:10;9.40;99.90
29917;DHT22;16786;49.466;11.068;2023-10-19T00:56:46;9.50;99.90
29917;DHT22;16786;49.466;11.068;2023-10-19T00:59:19;9.40;99.90
29917;DHT22;16786;49.466;11.068;2023-10-19T01:01:57;9.50;99.90
29917;DHT22;16786;49.466;11.068;2023-10-19T01:04:45;9.50;99.90
29917;DHT22;16786;49.466;11.068;2023-10-19T01:07:18;9.50;99.90
29917;DHT22;16786;49.466;11.068;2023-10-19T01:09:50;9.50;99.90
29917;DHT22;16786;49.466;11.068;2023-10-19T01:12:21;9.60;99.90
29917;DHT22;16786;49.466;11.068;2023-10-19T01:17:41;9.60;99.90
29917;DHT22;16786;49.466;11.068;2023-10-19T01:20:13;9.50;99.90
29917;DHT22;16786;49.466;11.068;2023-10-19T01:23:02;9.50;99.90
29917;DHT22;16786;49.466;11.068;2023-10-19T01:25:49;9.50;99.90
29917;DHT22;16786;49.466;11.068;2023-10-19T01:28:24;9.50;99.90
29917;DHT22;16786;49.466;11.068;2023-10-19T01:31:26;9.60;99.90
29917;DHT22;16786;49.466;11.068;2023-10-19T01:34:00;9.60;99.90
29917;DHT22;16786;49.466;11.068;2023-10-19T01:36:32;9.60;99.90
29917;DHT22;16786;49.466;11.068;2023-10-19T01:39:09;9.60;99.90
29917;DHT22;16786;49.466;11.068;2023-10-19T01:41:38;9.60;99.90
29917;DHT22;16786;49.466;11.068;2023-10-19T01:44:08;9.60;99.90
29917;DHT22;16786;49.466;11.068;2023-10-19T01:46:42;9.60;99.90
29917;DHT22;16786;49.466;11.068;2023-10-19T01:49:13;9.60;99.90
29917;DHT22;16786;49.466;11.068;2023-10-19T01:51:40;9.60;99.90
29917;DHT22;16786;49.466;11.068;2023-10-19T01:54:10;9.70;99.90
29917;DHT22;16786;49.466;11.068;2023-10-19T01:56:38;9.70;99.90
29917;DHT22;16786;49.466;11.068;2023-10-19T01:59:06;9.60;99.90
29917;DHT22;16786;49.466;11.068;2023-10-19T02:01:36;9.70;99.90
29917;DHT22;16786;49.466;11.068;2023-10-19T02:04:05;9.60;99.90
29917;DHT22;16786;49.466;11.068;2023-10-19T02:06:36;9.70;99.90
29917;DHT22;16786;49.466;11.068;2023-10-19T02:09:12;9.70;99.90
29917;DHT22;16786;49.466;11.068;2023-10-19T02:11:51;9.70;99.90
29917;DHT22;16786;49.466;11.068;2023-10-19T02:14:20;9.70;99.90
29917;DHT22;16786;49.466;11.068;2023-10-19T02:16:51;9.70;99.90
29917;DHT22;16786;49.466;11.068;2023-10-19T02:19:21;9.60;99.90
29917;DHT22;16786;49.466;11.068;2023-10-19T02:21:53;9.60;99.90
29917;DHT22;16786;49.466;11.068;2023-10-19T02:24:21;9.60;99.90
29917;DHT22;16786;49.466;11.068;2023-10-19T02:26:54;9.60;99.90
29917;DHT22;16786;49.466;11.068;2023-10-19T02:29:22;9.60;99.90
29917;DHT22;16786;49.466;11.068;2023-10-19T02:31:50;9.60;99.90
29917;DHT22;16786;49.466;11.068;2023-10-19T02:34:18;9.60;99.90
29917;DHT22;16786;49.466;11.068;2023-10-19T02:36:46;9.60;99.90
29917;DHT22;16786;49.466;11.068;2023-10-19T02:39:15;9.60;99.90
29917;DHT22;16786;49.466;11.068;2023-10-19T02:41:46;9.60;99.90
29917;DHT22;16786;49.466;11.068;2023-10-19T02:44:18;9.60;99.90
29917;DHT22;16786;49.466;11.068;2023-10-19T02:46:47;9.60;99.90
29917;DHT22;16786;49.466;11.068;2023-10-19T02:49:18;9.50;99.90
29917;DHT22;16786;49.466;11.068;2023-10-19T02:51:48;9.60;99.90
29917;DHT22;16786;49.466;11.068;2023-10-19T02:54:21;9.60;99.90
29917;DHT22;16786;49.466;11.068;2023-10-19T02:56:54;9.60;99.90
29917;DHT22;16786;49.466;11.068;2023-10-19T02:59:25;9.60;99.90
29917;DHT22;16786;49.466;11.068;2023-10-19T03:01:56;9.60;99.90
29917;DHT22;16786;49.466;11.068;2023-10-19T03:04:40;9.70;99.90
29917;DHT22;16786;49.466;11.068;2023-10-19T03:07:09;9.70;99.90
29917;DHT22;16786;49.466;11.068;2023-10-19T03:09:41;9.70;99.90
29917;DHT22;16786;49.466;11.068;2023-10-19T03:12:21;9.80;99.90
29917;DHT22;16786;49.466;11.068;2023-10-19T03:14:52;9.80;99.90
29917;DHT22;16786;49.466;11.068;2023-10-19T03:17:20;9.80;99.90
29917;DHT22;16786;49.466;11.068;2023-10-19T03:19:48;9.80;99.90
29917;DHT22;16786;49.466;11.068;2023-10-19T03:22:16;9.80;99.90
29917;DHT22;16786;49.466;11.068;2023-10-19T03:24:44;9.80;99.90
29917;DHT22;16786;49.466;11.068;2023-10-19T03:27:13;9.80;99.90
29917;DHT22;16786;49.466;11.068;2023-10-19T03:29:51;9.80;99.90
29917;DHT22;16786;49.466;11.068;2023-10-19T03:32:24;9.80;99.90
29917;DHT22;16786;49.466;11.068;2023-10-19T03:34:56;9.80;99.90
29917;DHT22;16786;49.466;11.068;2023-10-19T03:37:24;9.80;99.90
29917;DHT22;16786;49.466;11.068;2023-10-19T03:39:53;9.80;99.90
29917;DHT22;16786;49.466;11.068;2023-10-19T03:42:24;9.80;99.90
29917;DHT22;16786;49.466;11.068;2023-10-19T03:45:01;9.80;99.90
29917;DHT22;16786;49.466;11.068;2023-10-19T03:47:33;9.80;99.90
29917;DHT22;16786;49.466;11.068;2023-10-19T03:50:06;9.80;99.90
29917;DHT22;16786;49.466;11.068;2023-10-19T03:52:41;9.80;99.90
29917;DHT22;16786;49.466;11.068;2023-10-19T03:55:09;9.80;99.90
29917;DHT22;16786;49.466;11.068;2023-10-19T03:57:42;9.80;99.90
29917;DHT22;16786;49.466;11.068;2023-10-19T04:00:14;9.80;99.90
29917;DHT22;16786;49.466;11.068;2023-10-19T04:02:45;9.80;99.90
29917;DHT22;16786;49.466;11.068;2023-10-19T04:05:14;9.70;99.90
29917;DHT22;16786;49.466;11.068;2023-10-19T04:07:49;9.70;99.90
29917;DHT22;16786;49.466;11.068;2023-10-19T04:10:19;9.70;99.90
29917;DHT22;16786;49.466;11.068;2023-10-19T04:13:07;9.70;99.90
29917;DHT22;16786;49.466;11.068;2023-10-19T04:15:40;9.70;99.90
29917;DHT22;16786;49.466;11.068;2023-10-19T04:18:09;9.70;99.90
29917;DHT22;16786;49.466;11.068;2023-10-19T04:20:38;9.70;99.90
29917;DHT22;16786;49.466;11.068;2023-10-19T04:23:18;9.70;99.90
29917;DHT22;16786;49.466;11.068;2023-10-19T04:25:45;9.80;99.90
29917;DHT22;16786;49.466;11.068;2023-10-19T04:28:14;9.80;99.90
29917;DHT22;16786;49.466;11.068;2023-10-19T04:30:41;9.80;99.90
29917;DHT22;16786;49.466;11.068;2023-10-19T04:33:08;9.80;99.90
29917;DHT22;16786;49.466;11.068;2023-10-19T04:35:37;9.70;99.90
29917;DHT22;16786;49.466;11.068;2023-10-19T04:38:05;9.80;99.90
29917;DHT22;16786;49.466;11.068;2023-10-19T04:40:35;9.80;99.90
29917;DHT22;16786;49.466;11.068;2023-10-19T04:43:03;9.80;99.90
29917;DHT22;16786;49.466;11.068;2023-10-19T04:45:32;9.80;99.90
29917;DHT22;16786;49.466;11.068;2023-10-19T04:48:00;9.80;99.90
29917;DHT22;16786;49.466;11.068;2023-10-19T04:50:30;9.80;99.90
29917;DHT22;16786;49.466;11.068;2023-10-19T04:52:57;9.80;99.90
29917;DHT22;16786;49.466;11.068;2023-10-19T04:55:24;9.80;99.90
29917;DHT22;16786;49.466;11.068;2023-10-19T04:57:52;9.80;99.90
29917;DHT22;16786;49.466;11.068;2023-10-19T05:00:19;9.80;99.90
29917;DHT22;16786;49.466;11.068;2023-10-19T05:02:48;9.70;99.90
29917;DHT22;16786;49.466;11.068;2023-10-19T05:05:16;9.70;99.90
29917;DHT22;16786;49.466;11.068;2023-10-19T05:07:44;9.70;99.90
29917;DHT22;16786;49.466;11.068;2023-10-19T05:10:12;9.70;99.90
29917;DHT22;16786;49.466;11.068;2023-10-19T05:12:39;9.70;99.90
29917;DHT22;16786;49.466;11.068;2023-10-19T05:15:06;9.70;99.90
29917;DHT22;16786;49.466;11.068;2023-10-19T05:17:35;9.70;99.90
29917;DHT22;16786;49.466;11.068;2023-10-19T05:20:03;9.70;99.90
29917;DHT22;16786;49.466;11.068;2023-10-19T05:22:32;9.70;99.90
29917;DHT22;16786;49.466;11.068;2023-10-19T05:25:00;9.70;99.90
29917;DHT22;16786;49.466;11.068;2023-10-19T05:27:28;9.70;99.90
29917;DHT22;16786;49.466;11.068;2023-10-19T05:29:55;9.60;99.90
29917;DHT22;16786;49.466;11.068;2023-10-19T05:32:23;9.60;99.90
29917;DHT22;16786;49.466;11.068;2023-10-19T05:34:51;9.60;99.90
29917;DHT22;16786;49.466;11.068;2023-10-19T05:37:19;9.60;99.90
29917;DHT22;16786;49.466;11.068;2023-10-19T05:39:46;9.60;99.90
29917;DHT22;16786;49.466;11.068;2023-10-19T05:42:14;9.60;99.90
29917;DHT22;16786;49.466;11.068;2023-10-19T05:44:41;9.60;99.90
29917;DHT22;16786;49.466;11.068;2023-10-19T05:47:08;9.70;99.90
29917;DHT22;16786;49.466;11.068;2023-10-19T05:49:35;9.70;99.90
29917;DHT22;16786;49.466;11.068;2023-10-19T05:52:03;9.70;99.90
29917;DHT22;16786;49.466;11.068;2023-10-19T05:54:30;9.80;99.90
29917;DHT22;16786;49.466;11.068;2023-10-19T05:56:58;9.80;99.90
29917;DHT22;16786;49.466;11.068;2023-10-19T05:59:25;9.80;99.90
29917;DHT22;16786;49.466;11.068;2023-10-19T06:01:53;9.80;99.90
29917;DHT22;16786;49.466;11.068;2023-10-19T06:04:21;9.70;99.90
29917;DHT22;16786;49.466;11.068;2023-10-19T06:06:48;9.70;99.90
29917;DHT22;16786;49.466;11.068;2023-10-19T06:09:16;9.60;99.90
29917;DHT22;16786;49.466;11.068;2023-10-19T06:11:45;9.60;99.90
29917;DHT22;16786;49.466;11.068;2023-10-19T06:14:13;9.60;99.90
29917;DHT22;16786;49.466;11.068;2023-10-19T06:16:40;9.60;99.90
29917;DHT22;16786;49.466;11.068;2023-10-19T06:19:08;9.60;99.90
29917;DHT22;16786;49.466;11.068;2023-10-19T06:21:36;9.60;99.90
29917;DHT22;16786;49.466;11.068;2023-10-19T06:24:04;9.60;99.90
29917;DHT22;16786;49.466;11.068;2023-10-19T06:26:36;9.60;99.90
29917;DHT22;16786;49.466;11.068;2023-10-19T06:29:03;9.60;99.90
29917;DHT22;16786;49.466;11.068;2023-10-19T06:31:31;9.60;99.90
29917;DHT22;16786;49.466;11.068;2023-10-19T06:33:59;9.70;99.90
29917;DHT22;16786;49.466;11.068;2023-10-19T06:36:28;9.70;99.90
29917;DHT22;16786;49.466;11.068;2023-10-19T06:38:58;9.80;99.90
29917;DHT22;16786;49.466;11.068;2023-10-19T06:41:26;9.90;99.90
29917;DHT22;16786;49.466;11.068;2023-10-19T07:23:18;11.30;99.90
29917;DHT22;16786;49.466;11.068;2023-10-19T07:25:49;11.40;99.90
29917;DHT22;16786;49.466;11.068;2023-10-19T07:28:22;11.50;99.90
29917;DHT22;16786;49.466;11.068;2023-10-19T07:30:53;11.50;99.90
29917;DHT22;16786;49.466;11.068;2023-10-19T07:33:21;11.60;99.90
29917;DHT22;16786;49.466;11.068;2023-10-19T07:35:50;11.60;99.90
29917;DHT22;16786;49.466;11.068;2023-10-19T07:38:29;11.60;99.90
29917;DHT22;16786;49.466;11.068;2023-10-19T07:41:00;11.60;99.90
29917;DHT22;16786;49.466;11.068;2023-10-19T07:43:28;11.70;99.90
29917;DHT22;16786;49.466;11.068;2023-10-19T07:45:57;11.60;99.90
29917;DHT22;16786;49.466;11.068;2023-10-19T07:48:24;11.70;99.90
29917;DHT22;16786;49.466;11.068;2023-10-19T07:50:52;11.80;99.90
29917;DHT22;16786;49.466;11.068;2023-10-19T07:53:20;11.90;99.90
29917;DHT22;16786;49.466;11.068;2023-10-19T07:55:48;12.00;99.90
29917;DHT22;16786;49.466;11.068;2023-10-19T07:58:16;12.10;99.90
29917;DHT22;16786;49.466;11.068;2023-10-19T08:00:43;12.20;99.90
29917;DHT22;16786;49.466;11.068;2023-10-19T08:03:13;12.30;99.90
29917;DHT22;16786;49.466;11.068;2023-10-19T08:05:43;12.60;99.90
29917;DHT22;16786;49.466;11.068;2023-10-19T08:08:10;12.80;99.90
29917;DHT22;16786;49.466;11.068;2023-10-19T08:10:39;13.10;99.90
29917;DHT22;16786;49.466;11.068;2023-10-19T08:13:07;13.30;99.90
29917;DHT22;16786;49.466;11.068;2023-10-19T08:15:34;13.30;99.90
29917;DHT22;16786;49.466;11.068;2023-10-19T08:32:22;12.90;99.90
29917;DHT22;16786;49.466;11.068;2023-10-19T08:34:50;13.00;99.90
29917;DHT22;16786;49.466;11.068;2023-10-19T08:37:17;13.10;99.90
29917;DHT22;16786;49.466;11.068;2023-10-19T08:39:45;13.10;99.90
29917;DHT22;16786;49.466;11.068;2023-10-19T08:42:12;13.20;99.90
29917;DHT22;16786;49.466;11.068;2023-10-19T08:44:40;13.30;99.90
29917;DHT22;16786;49.466;11.068;2023-10-19T08:47:07;13.50;99.90
29917;DHT22;16786;49.466;11.068;2023-10-19T08:49:35;13.70;99.90
29917;DHT22;16786;49.466;11.068;2023-10-19T08:52:04;13.90;99.90
29917;DHT22;16786;49.466;11.068;2023-10-19T08:54:32;13.90;99.90
29917;DHT22;16786;49.466;11.068;2023-10-19T08:57:00;14.10;99.90
29917;DHT22;16786;49.466;11.068;2023-10-19T08:59:27;14.10;99.90
29917;DHT22;16786;49.466;11.068;2023-10-19T09:02:02;14.00;99.90
29917;DHT22;16786;49.466;11.068;2023-10-19T09:04:29;14.00;99.90
29917;DHT22;16786;49.466;11.068;2023-10-19T09:06:57;14.10;99.90
29917;DHT22;16786;49.466;11.068;2023-10-19T09:09:24;14.10;99.90
29917;DHT22;16786;49.466;11.068;2023-10-19T09:11:54;14.20;99.90
29917;DHT22;16786;49.466;11.068;2023-10-19T09:14:32;14.50;99.90
29917;DHT22;16786;49.466;11.068;2023-10-19T09:17:00;14.70;99.90
29917;DHT22;16786;49.466;11.068;2023-10-19T09:19:42;14.70;99.90
29917;DHT22;16786;49.466;11.068;2023-10-19T09:22:09;15.00;99.90
29917;DHT22;16786;49.466;11.068;2023-10-19T09:24:45;15.10;99.90
29917;DHT22;16786;49.466;11.068;2023-10-19T09:27:13;15.20;99.90
29917;DHT22;16786;49.466;11.068;2023-10-19T09:29:44;15.10;99.90
29917;DHT22;16786;49.466;11.068;2023-10-19T09:32:12;15.20;99.90
29917;DHT22;16786;49.466;11.068;2023-10-19T09:34:44;15.30;99.90
29917;DHT22;16786;49.466;11.068;2023-10-19T09:37:11;15.20;99.90
29917;DHT22;16786;49.466;11.068;2023-10-19T09:39:39;15.20;99.90
29917;DHT22;16786;49.466;11.068;2023-10-19T09:42:10;15.20;99.90
29917;DHT22;16786;49.466;11.068;2023-10-19T09:47:13;15.40;99.90
29917;DHT22;16786;49.466;11.068;2023-10-19T09:49:41;15.50;99.90
29917;DHT22;16786;49.466;11.068;2023-10-19T09:52:12;15.40;99.90
29917;DHT22;16786;49.466;11.068;2023-10-19T09:57:43;15.20;99.90
29917;DHT22;16786;49.466;11.068;2023-10-19T10:00:13;15.20;99.90
29917;DHT22;16786;49.466;11.068;2023-10-19T10:02:43;15.40;99.90
29917;DHT22;16786;49.466;11.068;2023-10-19T10:05:44;15.50;99.90
29917;DHT22;16786;49.466;11.068;2023-10-19T10:10:45;15.60;99.90
29917;DHT22;16786;49.466;11.068;2023-10-19T10:15:58;15.80;99.90
29917;DHT22;16786;49.466;11.068;2023-10-19T10:18:35;15.90;99.90
29917;DHT22;16786;49.466;11.068;2023-10-19T10:21:13;15.80;99.90
29917;DHT22;16786;49.466;11.068;2023-10-19T10:23:57;15.60;99.90
29917;DHT22;16786;49.466;11.068;2023-10-19T10:26:26;15.60;99.90
29917;DHT22;16786;49.466;11.068;2023-10-19T10:29:25;15.60;99.90
29917;DHT22;16786;49.466;11.068;2023-10-19T10:31:53;15.80;99.90
29917;DHT22;16786;49.466;11.068;2023-10-19T10:37:10;16.10;99.90
29917;DHT22;16786;49.466;11.068;2023-10-19T10:39:39;16.00;99.90
29917;DHT22;16786;49.466;11.068;2023-10-19T10:42:09;16.10;99.90
29917;DHT22;16786;49.466;11.068;2023-10-19T10:47:12;16.10;99.90
29917;DHT22;16786;49.466;11.068;2023-10-19T10:49:51;16.30;99.90
29917;DHT22;16786;49.466;11.068;2023-10-19T10:52:31;16.50;99.90
29917;DHT22;16786;49.466;11.068;2023-10-19T10:55:12;16.70;99.90
29917;DHT22;16786;49.466;11.068;2023-10-19T10:57:41;16.80;99.90
29917;DHT22;16786;49.466;11.068;2023-10-19T11:00:13;17.00;99.90
29917;DHT22;16786;49.466;11.068;2023-10-19T11:02:46;17.10;99.90
29917;DHT22;16786;49.466;11.068;2023-10-19T11:05:14;17.50;99.90
29917;DHT22;16786;49.466;11.068;2023-10-19T11:08:06;17.80;99.90
29917;DHT22;16786;49.466;11.068;2023-10-19T11:10:34;17.90;99.90
29917;DHT22;16786;49.466;11.068;2023-10-19T11:13:07;17.80;99.90
29917;DHT22;16786;49.466;11.068;2023-10-19T11:15:35;17.60;99.90
29917;DHT22;16786;49.466;11.068;2023-10-19T11:18:07;18.00;99.90
29917;DHT22;16786;49.466;11.068;2023-10-19T11:20:34;17.90;99.90
29917;DHT22;16786;49.466;11.068;2023-10-19T11:23:02;17.90;99.90
29917;DHT22;16786;49.466;11.068;2023-10-19T11:25:30;17.90;99.90
29917;DHT22;16786;49.466;11.068;2023-10-19T11:28:00;18.00;99.90
29917;DHT22;16786;49.466;11.068;2023-10-19T11:30:31;18.30;99.90
29917;DHT22;16786;49.466;11.068;2023-10-19T11:32:59;18.60;99.90
29917;DHT22;16786;49.466;11.068;2023-10-19T11:35:30;18.80;99.90
29917;DHT22;16786;49.466;11.068;2023-10-19T11:38:00;18.80;99.90
29917;DHT22;16786;49.466;11.068;2023-10-19T11:40:29;18.90;99.90
29917;DHT22;16786;49.466;11.068;2023-10-19T11:42:56;18.90;99.90
29917;DHT22;16786;49.466;11.068;2023-10-19T11:45:23;19.30;99.90
29917;DHT22;16786;49.466;11.068;2023-10-19T11:47:50;19.50;99.90
29917;DHT22;16786;49.466;11.068;2023-10-19T11:50:17;19.60;99.90
29917;DHT22;16786;49.466;11.068;2023-10-19T11:52:46;19.60;99.90
29917;DHT22;16786;49.466;11.068;2023-10-19T11:55:15;19.60;99.90
29917;DHT22;16786;49.466;11.068;2023-10-19T11:57:42;19.50;99.90
29917;DHT22;16786;49.466;11.068;2023-10-19T12:00:13;19.40;99.90
29917;DHT22;16786;49.466;11.068;2023-10-19T12:02:40;19.70;99.90
29917;DHT22;16786;49.466;11.068;2023-10-19T12:05:09;19.80;99.90
29917;DHT22;16786;49.466;11.068;2023-10-19T12:07:39;19.70;99.90
29917;DHT22;16786;49.466;11.068;2023-10-19T12:10:09;19.60;99.90
29917;DHT22;16786;49.466;11.068;2023-10-19T12:12:36;19.40;99.90
29917;DHT22;16786;49.466;11.068;2023-10-19T12:15:23;19.40;99.90
29917;DHT22;16786;49.466;11.068;2023-10-19T12:17:52;19.20;99.90
29917;DHT22;16786;49.466;11.068;2023-10-19T12:20:21;19.10;99.90
29917;DHT22;16786;49.466;11.068;2023-10-19T12:22:49;19.00;99.90
29917;DHT22;16786;49.466;11.068;2023-10-19T12:25:20;19.00;99.90
29917;DHT22;16786;49.466;11.068;2023-10-19T12:28:08;19.00;99.90
29917;DHT22;16786;49.466;11.068;2023-10-19T12:30:41;18.80;99.90
29917;DHT22;16786;49.466;11.068;2023-10-19T12:33:09;18.60;99.90
29917;DHT22;16786;49.466;11.068;2023-10-19T12:35:41;18.50;99.90
29917;DHT22;16786;49.466;11.068;2023-10-19T12:38:26;18.50;99.90
29917;DHT22;16786;49.466;11.068;2023-10-19T12:40:54;18.40;99.90
29917;DHT22;16786;49.466;11.068;2023-10-19T12:43:21;18.40;99.90
29917;DHT22;16786;49.466;11.068;2023-10-19T12:45:56;18.40;99.90
29917;DHT22;16786;49.466;11.068;2023-10-19T12:48:24;18.30;99.90
29917;DHT22;16786;49.466;11.068;2023-10-19T12:51:07;18.20;99.90
29917;DHT22;16786;49.466;11.068;2023-10-19T12:53:33;18.20;99.90
29917;DHT22;16786;49.466;11.068;2023-10-19T12:56:01;18.10;99.90
29917;DHT22;16786;49.466;11.068;2023-10-19T12:58:30;18.40;99.90
29917;DHT22;16786;49.466;11.068;2023-10-19T13:00:58;18.60;99.90
29917;DHT22;16786;49.466;11.068;2023-10-19T13:03:25;18.80;99.90
29917;DHT22;16786;49.466;11.068;2023-10-19T13:05:59;18.70;99.90
29917;DHT22;16786;49.466;11.068;2023-10-19T13:08:26;18.50;99.90
29917;DHT22;16786;49.466;11.068;2023-10-19T13:10:57;18.30;99.90
29917;DHT22;16786;49.466;11.068;2023-10-19T13:13:38;18.10;99.90
29917;DHT22;16786;49.466;11.068;2023-10-19T13:16:06;17.90;99.90
29917;DHT22;16786;49.466;11.068;2023-10-19T13:18:33;17.80;99.90
29917;DHT22;16786;49.466;11.068;2023-10-19T13:21:01;17.60;99.90
29917;DHT22;16786;49.466;11.068;2023-10-19T13:23:32;17.50;99.90
29917;DHT22;16786;49.466;11.068;2023-10-19T13:26:06;17.30;99.90
29917;DHT22;16786;49.466;11.068;2023-10-19T13:28:45;17.10;99.90
29917;DHT22;16786;49.466;11.068;2023-10-19T13:31:12;16.90;99.90
29917;DHT22;16786;49.466;11.068;2023-10-19T13:33:43;16.80;99.90
29917;DHT22;16786;49.466;11.068;2023-10-19T13:36:11;16.70;99.90
29917;DHT22;16786;49.466;11.068;2023-10-19T13:38:40;16.60;99.90
29917;DHT22;16786;49.466;11.068;2023-10-19T13:41:07;16.50;99.90
29917;DHT22;16786;49.466;11.068;2023-10-19T13:43:38;16.50;99.90
29917;DHT22;16786;49.466;11.068;2023-10-19T13:46:17;16.50;99.90
29917;DHT22;16786;49.466;11.068;2023-10-19T13:48:44;16.50;99.90
29917;DHT22;16786;49.466;11.068;2023-10-19T13:51:16;16.50;99.90
29917;DHT22;16786;49.466;11.068;2023-10-19T13:53:45;16.50;99.90
29917;DHT22;16786;49.466;11.068;2023-10-19T13:56:13;16.50;99.90
29917;DHT22;16786;49.466;11.068;2023-10-19T13:58:43;16.40;99.90
29917;DHT22;16786;49.466;11.068;2023-10-19T14:01:15;16.40;99.90
29917;DHT22;16786;49.466;11.068;2023-10-19T14:03:44;16.40;99.90
29917;DHT22;16786;49.466;11.068;2023-10-19T14:06:12;16.30;99.90
29917;DHT22;16786;49.466;11.068;2023-10-19T14:08:40;16.30;99.90
29917;DHT22;16786;49.466;11.068;2023-10-19T14:11:07;16.30;99.90
29917;DHT22;16786;49.466;11.068;2023-10-19T14:13:35;16.30;99.90
29917;DHT22;16786;49.466;11.068;2023-10-19T14:16:06;16.30;99.90
29917;DHT22;16786;49.466;11.068;2023-10-19T14:18:36;16.30;99.90
29917;DHT22;16786;49.466;11.068;2023-10-19T14:21:14;16.20;99.90
29917;DHT22;16786;49.466;11.068;2023-10-19T14:23:42;16.20;99.90
29917;DHT22;16786;49.466;11.068;2023-10-19T14:26:10;16.10;99.90
29917;DHT22;16786;49.466;11.068;2023-10-19T14:28:38;16.10;99.90
29917;DHT22;16786;49.466;11.068;2023-10-19T14:31:05;16.10;99.90
29917;DHT22;16786;49.466;11.068;2023-10-19T14:33:34;16.10;99.90
29917;DHT22;16786;49.466;11.068;2023-10-19T14:36:03;16.10;99.90
29917;DHT22;16786;49.466;11.068;2023-10-19T14:38:31;16.10;99.90
29917;DHT22;16786;49.466;11.068;2023-10-19T14:40:58;16.20;99.90
29917;DHT22;16786;49.466;11.068;2023-10-19T14:43:26;16.10;99.90
29917;DHT22;16786;49.466;11.068;2023-10-19T14:45:53;16.10;99.90
29917;DHT22;16786;49.466;11.068;2023-10-19T14:48:22;16.10;99.90
29917;DHT22;16786;49.466;11.068;2023-10-19T14:50:50;16.00;99.90
29917;DHT22;16786;49.466;11.068;2023-10-19T14:53:18;15.90;99.90
29917;DHT22;16786;49.466;11.068;2023-10-19T14:55:45;15.80;99.90
29917;DHT22;16786;49.466;11.068;2023-10-19T14:58:12;15.70;99.90
29917;DHT22;16786;49.466;11.068;2023-10-19T15:00:39;15.70;99.90
29917;DHT22;16786;49.466;11.068;2023-10-19T15:03:11;15.70;99.90
29917;DHT22;16786;49.466;11.068;2023-10-19T15:05:38;15.50;99.90
29917;DHT22;16786;49.466;11.068;2023-10-19T15:08:07;15.40;99.90
29917;DHT22;16786;49.466;11.068;2023-10-19T15:10:35;15.30;99.90
29917;DHT22;16786;49.466;11.068;2023-10-19T15:13:06;15.20;99.90
29917;DHT22;16786;49.466;11.068;2023-10-19T15:15:33;15.20;99.90
29917;DHT22;16786;49.466;11.068;2023-10-19T15:18:00;15.10;99.90
29917;DHT22;16786;49.466;11.068;2023-10-19T15:20:30;15.10;99.90
29917;DHT22;16786;49.466;11.068;2023-10-19T15:22:57;15.10;99.90
29917;DHT22;16786;49.466;11.068;2023-10-19T15:25:25;15.10;99.90
29917;DHT22;16786;49.466;11.068;2023-10-19T15:27:52;15.10;99.90
29917;DHT22;16786;49.466;11.068;2023-10-19T15:30:20;15.20;99.90
29917;DHT22;16786;49.466;11.068;2023-10-19T15:32:49;15.10;99.90
29917;DHT22;16786;49.466;11.068;2023-10-19T15:35:17;15.00;99.90
29917;DHT22;16786;49.466;11.068;2023-10-19T15:37:53;15.00;99.90
29917;DHT22;16786;49.466;11.068;2023-10-19T15:40:24;14.90;99.90
29917;DHT22;16786;49.466;11.068;2023-10-19T15:42:52;14.80;99.90
29917;DHT22;16786;49.466;11.068;2023-10-19T15:45:25;14.80;99.90
29917;DHT22;16786;49.466;11.068;2023-10-19T15:47:53;14.70;99.90
29917;DHT22;16786;49.466;11.068;2023-10-19T15:50:21;14.70;99.90
29917;DHT22;16786;49.466;11.068;2023-10-19T15:52:49;14.60;99.90
29917;DHT22;16786;49.466;11.068;2023-10-19T15:55:18;14.50;99.90
29917;DHT22;16786;49.466;11.068;2023-10-19T15:57:48;14.50;99.90
29917;DHT22;16786;49.466;11.068;2023-10-19T16:00:19;14.50;99.90
29917;DHT22;16786;49.466;11.068;2023-10-19T16:02:48;14.30;99.90
29917;DHT22;16786;49.466;11.068;2023-10-19T16:05:16;14.30;99.90
29917;DHT22;16786;49.466;11.068;2023-10-19T16:07:44;14.20;99.90
29917;DHT22;16786;49.466;11.068;2023-10-19T16:10:11;14.20;99.90
29917;DHT22;16786;49.466;11.068;2023-10-19T16:12:42;14.20;99.90
29917;DHT22;16786;49.466;11.068;2023-10-19T16:15:10;14.10;99.90
29917;DHT22;16786;49.466;11.068;2023-10-19T16:17:37;14.10;99.90
29917;DHT22;16786;49.466;11.068;2023-10-19T16:20:06;14.10;99.90
29917;DHT22;16786;49.466;11.068;2023-10-19T16:22:34;14.00;99.90
29917;DHT22;16786;49.466;11.068;2023-10-19T16:25:03;14.00;99.90
29917;DHT22;16786;49.466;11.068;2023-10-19T16:27:30;13.90;99.90
29917;DHT22;16786;49.466;11.068;2023-10-19T16:30:00;13.90;99.90
29917;DHT22;16786;49.466;11.068;2023-10-19T16:32:27;13.90;99.90
29917;DHT22;16786;49.466;11.068;2023-10-19T16:34:57;13.80;99.90
29917;DHT22;16786;49.466;11.068;2023-10-19T16:37:25;13.80;99.90
29917;DHT22;16786;49.466;11.068;2023-10-19T16:39:52;13.80;99.90
29917;DHT22;16786;49.466;11.068;2023-10-19T16:42:20;13.80;99.90
29917;DHT22;16786;49.466;11.068;2023-10-19T16:44:47;13.80;99.90
29917;DHT22;16786;49.466;11.068;2023-10-19T16:47:14;13.80;99.90
29917;DHT22;16786;49.466;11.068;2023-10-19T16:49:42;13.80;99.90
29917;DHT22;16786;49.466;11.068;2023-10-19T16:52:09;13.70;99.90
29917;DHT22;16786;49.466;11.068;2023-10-19T16:54:36;13.70;99.90
29917;DHT22;16786;49.466;11.068;2023-10-19T16:57:03;13.70;99.90